Airfield :
LOGIN :

Register | Disclaimer

   EN    FR    IT 

 










Legend :    VFR   Marginal VFR   IFR   Intensive IFR   Very Intensive IFR
Visi :
Ceiling :
>= 8 km
>= 3000ft
5 to 8 km
1000 to 3000 ft
1500m to 5 km
500 to 1000 ft
800 to 1500m
200 to 500 ft
< 800m
< 200 ft
Symbols :   Thunderstorms  Fog  Heavy snow  Heavy precipitations  Wind > 20 kt
SIGMETs :     Misc.  Thunderstorms  Icing  Turbulence  Mountain Waves  Volcanic Ashes






- Airport Elevation : 37 ft


EHVL - Vlieland Heliport

CURRENT METAR :
  • 221555Z AUTO 26031G41KT 9999 FEW049 SCT055 BKN061 09/04 Q1012 BLU

EXPIRED METARs :
  • 221525Z AUTO 25028KT 9000 BR OVC075 09/05 Q1012 BLU
  • 221455Z AUTO 25027KT 9999 FEW092 OVC130 09/06 Q1012 BLU
  • 221448Z AUTO 25028KT 9999 OVC130 09/06 Q1012 BLU
  • 221435Z AUTO 25024KT 8000 BR OVC130 09/07 Q1012 BLU
  • 221428Z AUTO 25024KT 7000 BR FEW001 OVC150 09/07 Q1012 WHT
  • 221405Z AUTO 24022KT 7000 BR BKN001 OVC069 09/07 Q1011 RED
  • 221355Z AUTO 24023KT 7000 BR SCT001 OVC073 09/07 Q1011 RED
  • 221325Z AUTO 25023KT 9000 BR FEW029 OVC220 09/07 Q1011 BLU
  • 221301Z AUTO 26025KT 9999 FEW002 OVC054 09/07 Q1011 BLU

Expired Forecast.



MET'MAP, your aeronautical weather chart ! - Copyright ORBIFLY December 2007 - Disclaimer

ORBIFLY MET'MAP TEAM :

Programming & Development : Alexandra Zaïnal
Concept & original design : Baudouin d'Aumeries
Assistance for programming : Marc-Olivier Méhu
Technical & hardware support : Manuel Goepfert

Contact : metmap@orbifly.com




SOURCES & CREDITS :

   NOAA